sensor_id;sensor_type;location;lat;lon;timestamp;P1;durP1;ratioP1;P2;durP2;ratioP2
14892;SDS011;7538;53.626;9.906;2024-01-30T00:00:45;12.77;;;9.80;;
14892;SDS011;7538;53.626;9.906;2024-01-30T00:03:12;14.87;;;10.77;;
14892;SDS011;7538;53.626;9.906;2024-01-30T00:05:39;11.33;;;9.83;;
14892;SDS011;7538;53.626;9.906;2024-01-30T00:08:07;13.37;;;9.50;;
14892;SDS011;7538;53.626;9.906;2024-01-30T00:10:34;13.43;;;9.37;;
14892;SDS011;7538;53.626;9.906;2024-01-30T00:13:01;14.93;;;9.70;;
14892;SDS011;7538;53.626;9.906;2024-01-30T00:15:28;14.87;;;9.97;;
14892;SDS011;7538;53.626;9.906;2024-01-30T00:17:55;12.80;;;9.97;;
14892;SDS011;7538;53.626;9.906;2024-01-30T00:20:21;16.00;;;10.40;;
14892;SDS011;7538;53.626;9.906;2024-01-30T00:22:48;11.80;;;9.47;;
14892;SDS011;7538;53.626;9.906;2024-01-30T00:25:16;13.53;;;10.17;;
14892;SDS011;7538;53.626;9.906;2024-01-30T00:27:43;15.53;;;11.00;;
14892;SDS011;7538;53.626;9.906;2024-01-30T00:30:11;13.60;;;10.47;;
14892;SDS011;7538;53.626;9.906;2024-01-30T00:32:38;13.40;;;10.73;;
14892;SDS011;7538;53.626;9.906;2024-01-30T00:35:05;15.00;;;11.10;;
14892;SDS011;7538;53.626;9.906;2024-01-30T00:37:34;14.83;;;10.30;;
14892;SDS011;7538;53.626;9.906;2024-01-30T00:40:01;12.43;;;10.30;;
14892;SDS011;7538;53.626;9.906;2024-01-30T00:42:33;13.03;;;10.37;;
14892;SDS011;7538;53.626;9.906;2024-01-30T00:45:00;14.00;;;10.50;;
14892;SDS011;7538;53.626;9.906;2024-01-30T00:47:27;12.47;;;10.03;;
14892;SDS011;7538;53.626;9.906;2024-01-30T00:49:54;14.60;;;10.77;;
14892;SDS011;7538;53.626;9.906;2024-01-30T00:52:21;14.77;;;10.33;;
14892;SDS011;7538;53.626;9.906;2024-01-30T00:54:48;17.07;;;11.10;;
14892;SDS011;7538;53.626;9.906;2024-01-30T00:57:14;13.83;;;9.93;;
14892;SDS011;7538;53.626;9.906;2024-01-30T00:59:43;14.77;;;10.63;;
14892;SDS011;7538;53.626;9.906;2024-01-30T01:02:09;11.73;;;10.10;;
14892;SDS011;7538;53.626;9.906;2024-01-30T01:04:36;16.17;;;10.60;;
14892;SDS011;7538;53.626;9.906;2024-01-30T01:07:03;15.03;;;11.50;;
14892;SDS011;7538;53.626;9.906;2024-01-30T01:09:30;13.03;;;10.97;;
14892;SDS011;7538;53.626;9.906;2024-01-30T01:11:57;12.63;;;10.40;;
14892;SDS011;7538;53.626;9.906;2024-01-30T01:14:24;12.40;;;10.47;;
14892;SDS011;7538;53.626;9.906;2024-01-30T01:16:52;12.53;;;9.97;;
14892;SDS011;7538;53.626;9.906;2024-01-30T01:19:19;14.13;;;10.50;;
14892;SDS011;7538;53.626;9.906;2024-01-30T01:21:46;16.27;;;11.07;;
14892;SDS011;7538;53.626;9.906;2024-01-30T01:24:13;12.57;;;9.90;;
14892;SDS011;7538;53.626;9.906;2024-01-30T01:26:39;14.40;;;10.43;;
14892;SDS011;7538;53.626;9.906;2024-01-30T01:29:06;13.03;;;10.43;;
14892;SDS011;7538;53.626;9.906;2024-01-30T01:31:36;12.63;;;10.07;;
14892;SDS011;7538;53.626;9.906;2024-01-30T01:34:10;13.13;;;9.43;;
14892;SDS011;7538;53.626;9.906;2024-01-30T01:36:36;12.27;;;10.10;;
14892;SDS011;7538;53.626;9.906;2024-01-30T01:39:03;12.63;;;10.10;;
14892;SDS011;7538;53.626;9.906;2024-01-30T01:41:30;14.07;;;10.30;;
14892;SDS011;7538;53.626;9.906;2024-01-30T01:43:57;13.80;;;10.70;;
14892;SDS011;7538;53.626;9.906;2024-01-30T01:46:26;13.10;;;10.10;;
14892;SDS011;7538;53.626;9.906;2024-01-30T01:48:53;16.53;;;10.47;;
14892;SDS011;7538;53.626;9.906;2024-01-30T01:51:23;12.10;;;10.50;;
14892;SDS011;7538;53.626;9.906;2024-01-30T01:53:53;10.73;;;9.53;;
14892;SDS011;7538;53.626;9.906;2024-01-30T01:56:21;11.77;;;9.90;;
14892;SDS011;7538;53.626;9.906;2024-01-30T01:58:48;12.80;;;9.53;;
14892;SDS011;7538;53.626;9.906;2024-01-30T02:01:17;13.10;;;9.83;;
14892;SDS011;7538;53.626;9.906;2024-01-30T02:03:46;13.30;;;10.70;;
14892;SDS011;7538;53.626;9.906;2024-01-30T02:06:14;12.47;;;10.27;;
14892;SDS011;7538;53.626;9.906;2024-01-30T02:08:43;13.77;;;10.73;;
14892;SDS011;7538;53.626;9.906;2024-01-30T02:11:10;13.87;;;10.47;;
14892;SDS011;7538;53.626;9.906;2024-01-30T02:13:38;12.67;;;10.87;;
14892;SDS011;7538;53.626;9.906;2024-01-30T02:16:05;13.97;;;10.83;;
14892;SDS011;7538;53.626;9.906;2024-01-30T02:18:32;12.20;;;10.53;;
14892;SDS011;7538;53.626;9.906;2024-01-30T02:20:59;13.27;;;10.33;;
14892;SDS011;7538;53.626;9.906;2024-01-30T02:23:28;15.30;;;11.13;;
14892;SDS011;7538;53.626;9.906;2024-01-30T02:25:56;13.23;;;10.40;;
14892;SDS011;7538;53.626;9.906;2024-01-30T02:28:23;13.93;;;11.17;;
14892;SDS011;7538;53.626;9.906;2024-01-30T02:30:50;10.67;;;9.30;;
14892;SDS011;7538;53.626;9.906;2024-01-30T02:33:17;13.70;;;10.67;;
14892;SDS011;7538;53.626;9.906;2024-01-30T02:35:43;14.63;;;10.60;;
14892;SDS011;7538;53.626;9.906;2024-01-30T02:38:10;13.20;;;9.93;;
14892;SDS011;7538;53.626;9.906;2024-01-30T02:40:39;10.70;;;9.47;;
14892;SDS011;7538;53.626;9.906;2024-01-30T02:43:05;13.63;;;9.97;;
14892;SDS011;7538;53.626;9.906;2024-01-30T02:45:32;10.93;;;9.37;;
14892;SDS011;7538;53.626;9.906;2024-01-30T02:47:59;13.33;;;10.13;;
14892;SDS011;7538;53.626;9.906;2024-01-30T02:50:25;13.40;;;10.97;;
14892;SDS011;7538;53.626;9.906;2024-01-30T02:52:52;12.93;;;10.37;;
14892;SDS011;7538;53.626;9.906;2024-01-30T02:55:19;10.67;;;9.13;;
14892;SDS011;7538;53.626;9.906;2024-01-30T02:57:47;11.70;;;9.67;;
14892;SDS011;7538;53.626;9.906;2024-01-30T03:00:14;13.03;;;10.50;;
14892;SDS011;7538;53.626;9.906;2024-01-30T03:02:41;12.37;;;10.03;;
14892;SDS011;7538;53.626;9.906;2024-01-30T03:05:08;12.93;;;10.63;;
14892;SDS011;7538;53.626;9.906;2024-01-30T03:07:35;12.17;;;9.67;;
14892;SDS011;7538;53.626;9.906;2024-01-30T03:10:02;14.17;;;9.67;;
14892;SDS011;7538;53.626;9.906;2024-01-30T03:12:30;11.60;;;10.37;;
14892;SDS011;7538;53.626;9.906;2024-01-30T03:14:58;16.37;;;10.90;;
14892;SDS011;7538;53.626;9.906;2024-01-30T03:17:25;12.93;;;10.43;;
14892;SDS011;7538;53.626;9.906;2024-01-30T03:19:52;13.60;;;10.63;;
14892;SDS011;7538;53.626;9.906;2024-01-30T03:22:18;14.13;;;10.13;;
14892;SDS011;7538;53.626;9.906;2024-01-30T03:24:45;11.87;;;10.00;;
14892;SDS011;7538;53.626;9.906;2024-01-30T03:27:12;12.97;;;9.50;;
14892;SDS011;7538;53.626;9.906;2024-01-30T03:29:39;11.27;;;9.43;;
14892;SDS011;7538;53.626;9.906;2024-01-30T03:32:07;10.73;;;9.20;;
14892;SDS011;7538;53.626;9.906;2024-01-30T03:34:34;12.20;;;9.60;;
14892;SDS011;7538;53.626;9.906;2024-01-30T03:37:01;13.03;;;9.70;;
14892;SDS011;7538;53.626;9.906;2024-01-30T03:39:28;11.23;;;9.37;;
14892;SDS011;7538;53.626;9.906;2024-01-30T03:41:55;12.87;;;9.73;;
14892;SDS011;7538;53.626;9.906;2024-01-30T03:44:22;12.80;;;9.73;;
14892;SDS011;7538;53.626;9.906;2024-01-30T03:46:49;11.47;;;9.43;;
14892;SDS011;7538;53.626;9.906;2024-01-30T03:49:17;11.33;;;10.20;;
14892;SDS011;7538;53.626;9.906;2024-01-30T03:51:44;10.43;;;8.97;;
14892;SDS011;7538;53.626;9.906;2024-01-30T03:54:12;12.93;;;9.17;;
14892;SDS011;7538;53.626;9.906;2024-01-30T03:56:39;11.40;;;9.53;;
14892;SDS011;7538;53.626;9.906;2024-01-30T03:59:06;11.53;;;9.40;;
14892;SDS011;7538;53.626;9.906;2024-01-30T04:01:33;11.57;;;9.10;;
14892;SDS011;7538;53.626;9.906;2024-01-30T04:04:00;12.70;;;9.57;;
14892;SDS011;7538;53.626;9.906;2024-01-30T04:06:28;12.53;;;8.70;;
14892;SDS011;7538;53.626;9.906;2024-01-30T04:08:55;11.17;;;9.13;;
14892;SDS011;7538;53.626;9.906;2024-01-30T04:11:22;11.23;;;9.93;;
14892;SDS011;7538;53.626;9.906;2024-01-30T04:13:49;12.47;;;10.30;;
14892;SDS011;7538;53.626;9.906;2024-01-30T04:16:19;10.63;;;9.27;;
14892;SDS011;7538;53.626;9.906;2024-01-30T04:18:47;11.07;;;9.13;;
14892;SDS011;7538;53.626;9.906;2024-01-30T04:21:14;10.93;;;9.40;;
14892;SDS011;7538;53.626;9.906;2024-01-30T04:23:42;11.87;;;8.93;;
14892;SDS011;7538;53.626;9.906;2024-01-30T04:26:09;9.50;;;8.50;;
14892;SDS011;7538;53.626;9.906;2024-01-30T04:28:36;13.30;;;8.60;;
14892;SDS011;7538;53.626;9.906;2024-01-30T04:31:03;11.73;;;8.63;;
14892;SDS011;7538;53.626;9.906;2024-01-30T04:33:30;11.87;;;9.70;;
14892;SDS011;7538;53.626;9.906;2024-01-30T04:35:56;12.33;;;8.97;;
14892;SDS011;7538;53.626;9.906;2024-01-30T04:38:22;10.80;;;8.77;;
14892;SDS011;7538;53.626;9.906;2024-01-30T04:40:51;13.07;;;9.53;;
14892;SDS011;7538;53.626;9.906;2024-01-30T04:43:18;11.77;;;9.00;;
14892;SDS011;7538;53.626;9.906;2024-01-30T04:45:45;10.97;;;9.20;;
14892;SDS011;7538;53.626;9.906;2024-01-30T04:48:12;13.43;;;9.97;;
14892;SDS011;7538;53.626;9.906;2024-01-30T04:50:38;12.20;;;10.20;;
14892;SDS011;7538;53.626;9.906;2024-01-30T04:53:05;11.60;;;9.93;;
14892;SDS011;7538;53.626;9.906;2024-01-30T04:55:32;11.83;;;9.37;;
14892;SDS011;7538;53.626;9.906;2024-01-30T04:58:03;13.73;;;10.03;;
14892;SDS011;7538;53.626;9.906;2024-01-30T05:00:30;14.60;;;9.87;;
14892;SDS011;7538;53.626;9.906;2024-01-30T05:02:57;11.73;;;9.77;;
14892;SDS011;7538;53.626;9.906;2024-01-30T05:05:23;14.03;;;10.23;;
14892;SDS011;7538;53.626;9.906;2024-01-30T05:07:50;12.50;;;9.70;;
14892;SDS011;7538;53.626;9.906;2024-01-30T05:10:17;10.77;;;9.63;;
14892;SDS011;7538;53.626;9.906;2024-01-30T05:12:44;13.13;;;10.00;;
14892;SDS011;7538;53.626;9.906;2024-01-30T05:15:12;13.23;;;11.20;;
14892;SDS011;7538;53.626;9.906;2024-01-30T05:17:39;15.43;;;11.10;;
14892;SDS011;7538;53.626;9.906;2024-01-30T05:20:06;13.43;;;11.23;;
14892;SDS011;7538;53.626;9.906;2024-01-30T05:22:35;12.57;;;10.70;;
14892;SDS011;7538;53.626;9.906;2024-01-30T05:25:03;13.00;;;10.60;;
14892;SDS011;7538;53.626;9.906;2024-01-30T05:27:31;15.33;;;10.83;;
14892;SDS011;7538;53.626;9.906;2024-01-30T05:29:58;14.87;;;11.37;;
14892;SDS011;7538;53.626;9.906;2024-01-30T05:32:26;13.30;;;11.33;;
14892;SDS011;7538;53.626;9.906;2024-01-30T05:34:53;13.77;;;11.27;;
14892;SDS011;7538;53.626;9.906;2024-01-30T05:37:19;11.97;;;10.30;;
14892;SDS011;7538;53.626;9.906;2024-01-30T05:39:46;13.00;;;10.60;;
14892;SDS011;7538;53.626;9.906;2024-01-30T05:42:13;13.87;;;11.67;;
14892;SDS011;7538;53.626;9.906;2024-01-30T05:44:41;18.97;;;11.27;;
14892;SDS011;7538;53.626;9.906;2024-01-30T05:47:08;16.17;;;11.60;;
14892;SDS011;7538;53.626;9.906;2024-01-30T05:49:37;11.80;;;10.50;;
14892;SDS011;7538;53.626;9.906;2024-01-30T05:52:04;11.97;;;10.20;;
14892;SDS011;7538;53.626;9.906;2024-01-30T05:54:32;15.80;;;11.43;;
14892;SDS011;7538;53.626;9.906;2024-01-30T05:56:58;12.50;;;10.70;;
14892;SDS011;7538;53.626;9.906;2024-01-30T05:59:25;13.60;;;11.37;;
14892;SDS011;7538;53.626;9.906;2024-01-30T06:01:51;13.30;;;11.87;;
14892;SDS011;7538;53.626;9.906;2024-01-30T06:04:18;14.13;;;11.30;;
14892;SDS011;7538;53.626;9.906;2024-01-30T06:06:47;14.73;;;11.53;;
14892;SDS011;7538;53.626;9.906;2024-01-30T06:09:14;12.90;;;11.20;;
14892;SDS011;7538;53.626;9.906;2024-01-30T06:11:40;13.27;;;9.97;;
14892;SDS011;7538;53.626;9.906;2024-01-30T06:14:07;12.90;;;10.23;;
14892;SDS011;7538;53.626;9.906;2024-01-30T06:16:34;12.63;;;10.87;;
14892;SDS011;7538;53.626;9.906;2024-01-30T06:19:01;14.27;;;11.83;;
14892;SDS011;7538;53.626;9.906;2024-01-30T06:21:28;19.17;;;13.27;;
14892;SDS011;7538;53.626;9.906;2024-01-30T06:23:57;15.27;;;11.87;;
14892;SDS011;7538;53.626;9.906;2024-01-30T06:26:24;14.40;;;11.67;;
14892;SDS011;7538;53.626;9.906;2024-01-30T06:28:50;17.77;;;12.37;;
14892;SDS011;7538;53.626;9.906;2024-01-30T06:31:17;14.67;;;11.70;;
14892;SDS011;7538;53.626;9.906;2024-01-30T06:33:46;15.50;;;11.90;;
14892;SDS011;7538;53.626;9.906;2024-01-30T06:36:13;13.97;;;11.70;;
14892;SDS011;7538;53.626;9.906;2024-01-30T06:38:40;13.30;;;11.27;;
14892;SDS011;7538;53.626;9.906;2024-01-30T06:41:08;14.07;;;11.50;;
14892;SDS011;7538;53.626;9.906;2024-01-30T06:43:35;13.33;;;11.20;;
14892;SDS011;7538;53.626;9.906;2024-01-30T06:46:02;14.03;;;12.53;;
14892;SDS011;7538;53.626;9.906;2024-01-30T06:48:29;14.27;;;11.40;;
14892;SDS011;7538;53.626;9.906;2024-01-30T06:50:56;15.17;;;11.27;;
14892;SDS011;7538;53.626;9.906;2024-01-30T06:53:23;30.70;;;13.63;;
14892;SDS011;7538;53.626;9.906;2024-01-30T06:55:51;19.03;;;11.43;;
14892;SDS011;7538;53.626;9.906;2024-01-30T06:58:19;19.87;;;13.07;;
14892;SDS011;7538;53.626;9.906;2024-01-30T07:00:46;13.83;;;10.80;;
14892;SDS011;7538;53.626;9.906;2024-01-30T07:03:13;17.80;;;12.13;;
14892;SDS011;7538;53.626;9.906;2024-01-30T07:05:40;13.67;;;11.67;;
14892;SDS011;7538;53.626;9.906;2024-01-30T07:08:07;14.57;;;11.63;;
14892;SDS011;7538;53.626;9.906;2024-01-30T07:10:34;13.50;;;11.47;;
14892;SDS011;7538;53.626;9.906;2024-01-30T07:13:01;13.83;;;11.00;;
14892;SDS011;7538;53.626;9.906;2024-01-30T07:15:30;16.70;;;11.33;;
14892;SDS011;7538;53.626;9.906;2024-01-30T07:17:57;14.13;;;11.33;;
14892;SDS011;7538;53.626;9.906;2024-01-30T07:20:24;16.03;;;12.27;;
14892;SDS011;7538;53.626;9.906;2024-01-30T07:22:51;15.50;;;11.10;;
14892;SDS011;7538;53.626;9.906;2024-01-30T07:25:18;17.37;;;12.13;;
14892;SDS011;7538;53.626;9.906;2024-01-30T07:27:46;15.52;;;11.52;;
14892;SDS011;7538;53.626;9.906;2024-01-30T07:30:13;13.63;;;11.17;;
14892;SDS011;7538;53.626;9.906;2024-01-30T07:32:43;15.93;;;10.97;;
14892;SDS011;7538;53.626;9.906;2024-01-30T07:35:10;15.57;;;11.17;;
14892;SDS011;7538;53.626;9.906;2024-01-30T07:37:37;11.87;;;10.67;;
14892;SDS011;7538;53.626;9.906;2024-01-30T07:40:04;15.30;;;10.83;;
14892;SDS011;7538;53.626;9.906;2024-01-30T07:42:32;17.40;;;12.17;;
14892;SDS011;7538;53.626;9.906;2024-01-30T07:44:59;13.77;;;11.13;;
14892;SDS011;7538;53.626;9.906;2024-01-30T07:47:26;13.60;;;11.40;;
14892;SDS011;7538;53.626;9.906;2024-01-30T07:49:54;16.63;;;12.93;;
14892;SDS011;7538;53.626;9.906;2024-01-30T07:52:21;15.33;;;11.90;;
14892;SDS011;7538;53.626;9.906;2024-01-30T07:54:48;17.40;;;11.37;;
14892;SDS011;7538;53.626;9.906;2024-01-30T07:57:15;17.20;;;12.53;;
14892;SDS011;7538;53.626;9.906;2024-01-30T07:59:42;16.73;;;12.30;;
14892;SDS011;7538;53.626;9.906;2024-01-30T08:02:10;16.17;;;12.13;;
14892;SDS011;7538;53.626;9.906;2024-01-30T08:04:37;15.33;;;11.73;;
14892;SDS011;7538;53.626;9.906;2024-01-30T08:07:05;17.13;;;11.93;;
14892;SDS011;7538;53.626;9.906;2024-01-30T08:09:32;16.67;;;11.60;;
14892;SDS011;7538;53.626;9.906;2024-01-30T08:11:59;15.63;;;12.50;;
14892;SDS011;7538;53.626;9.906;2024-01-30T08:14:26;16.97;;;12.10;;
14892;SDS011;7538;53.626;9.906;2024-01-30T08:16:53;16.13;;;11.93;;
14892;SDS011;7538;53.626;9.906;2024-01-30T08:19:20;14.57;;;11.57;;
14892;SDS011;7538;53.626;9.906;2024-01-30T08:21:47;14.77;;;12.03;;
14892;SDS011;7538;53.626;9.906;2024-01-30T08:24:15;16.03;;;11.67;;
14892;SDS011;7538;53.626;9.906;2024-01-30T08:26:42;15.83;;;11.70;;
14892;SDS011;7538;53.626;9.906;2024-01-30T08:29:09;13.83;;;11.47;;
14892;SDS011;7538;53.626;9.906;2024-01-30T08:31:36;15.07;;;11.97;;
14892;SDS011;7538;53.626;9.906;2024-01-30T08:34:02;14.90;;;11.30;;
14892;SDS011;7538;53.626;9.906;2024-01-30T08:36:29;14.80;;;12.33;;
14892;SDS011;7538;53.626;9.906;2024-01-30T08:38:56;16.83;;;11.87;;
14892;SDS011;7538;53.626;9.906;2024-01-30T08:41:25;14.50;;;11.27;;
14892;SDS011;7538;53.626;9.906;2024-01-30T08:43:51;16.87;;;13.50;;
14892;SDS011;7538;53.626;9.906;2024-01-30T08:46:19;13.47;;;11.00;;
14892;SDS011;7538;53.626;9.906;2024-01-30T08:48:46;16.63;;;12.10;;
14892;SDS011;7538;53.626;9.906;2024-01-30T08:51:13;17.63;;;12.30;;
14892;SDS011;7538;53.626;9.906;2024-01-30T08:53:40;16.73;;;12.23;;
14892;SDS011;7538;53.626;9.906;2024-01-30T08:56:08;16.57;;;11.87;;
14892;SDS011;7538;53.626;9.906;2024-01-30T08:58:36;17.05;;;12.68;;
14892;SDS011;7538;53.626;9.906;2024-01-30T09:01:03;13.67;;;12.20;;
14892;SDS011;7538;53.626;9.906;2024-01-30T09:03:30;15.50;;;12.60;;
14892;SDS011;7538;53.626;9.906;2024-01-30T09:05:57;15.70;;;12.00;;
14892;SDS011;7538;53.626;9.906;2024-01-30T09:08:24;17.63;;;12.33;;
14892;SDS011;7538;53.626;9.906;2024-01-30T09:10:51;29.97;;;14.20;;
14892;SDS011;7538;53.626;9.906;2024-01-30T09:13:18;28.50;;;13.93;;
14892;SDS011;7538;53.626;9.906;2024-01-30T09:15:48;24.33;;;13.30;;
14892;SDS011;7538;53.626;9.906;2024-01-30T09:18:15;14.77;;;10.93;;
14892;SDS011;7538;53.626;9.906;2024-01-30T09:20:41;14.40;;;11.43;;
14892;SDS011;7538;53.626;9.906;2024-01-30T09:23:10;13.43;;;11.50;;
14892;SDS011;7538;53.626;9.906;2024-01-30T09:25:37;12.03;;;10.47;;
14892;SDS011;7538;53.626;9.906;2024-01-30T09:28:04;13.68;;;11.50;;
14892;SDS011;7538;53.626;9.906;2024-01-30T09:30:31;16.05;;;11.32;;
14892;SDS011;7538;53.626;9.906;2024-01-30T09:33:00;18.10;;;12.43;;
14892;SDS011;7538;53.626;9.906;2024-01-30T09:35:26;16.77;;;11.73;;
14892;SDS011;7538;53.626;9.906;2024-01-30T09:37:54;19.30;;;11.40;;
14892;SDS011;7538;53.626;9.906;2024-01-30T09:40:22;17.95;;;10.75;;
14892;SDS011;7538;53.626;9.906;2024-01-30T09:42:50;25.55;;;13.93;;
14892;SDS011;7538;53.626;9.906;2024-01-30T09:45:17;21.05;;;12.60;;
14892;SDS011;7538;53.626;9.906;2024-01-30T09:47:45;18.77;;;11.98;;
14892;SDS011;7538;53.626;9.906;2024-01-30T09:50:14;17.17;;;11.80;;
14892;SDS011;7538;53.626;9.906;2024-01-30T09:52:42;14.27;;;11.73;;
14892;SDS011;7538;53.626;9.906;2024-01-30T09:55:09;15.50;;;11.63;;
14892;SDS011;7538;53.626;9.906;2024-01-30T09:57:36;15.82;;;11.52;;
14892;SDS011;7538;53.626;9.906;2024-01-30T10:00:04;18.95;;;12.45;;
14892;SDS011;7538;53.626;9.906;2024-01-30T10:02:33;16.08;;;11.32;;
14892;SDS011;7538;53.626;9.906;2024-01-30T10:05:01;12.98;;;10.43;;
14892;SDS011;7538;53.626;9.906;2024-01-30T10:07:29;12.82;;;10.48;;
14892;SDS011;7538;53.626;9.906;2024-01-30T10:09:56;15.38;;;11.93;;
14892;SDS011;7538;53.626;9.906;2024-01-30T10:12:25;14.98;;;11.55;;
14892;SDS011;7538;53.626;9.906;2024-01-30T10:14:52;14.80;;;11.85;;
14892;SDS011;7538;53.626;9.906;2024-01-30T10:17:24;14.15;;;10.82;;
14892;SDS011;7538;53.626;9.906;2024-01-30T10:19:52;13.40;;;10.80;;
14892;SDS011;7538;53.626;9.906;2024-01-30T10:22:19;11.73;;;10.35;;
14892;SDS011;7538;53.626;9.906;2024-01-30T10:24:47;13.23;;;10.75;;
14892;SDS011;7538;53.626;9.906;2024-01-30T10:27:14;14.00;;;11.05;;
14892;SDS011;7538;53.626;9.906;2024-01-30T10:29:41;11.25;;;10.07;;
14892;SDS011;7538;53.626;9.906;2024-01-30T10:32:08;14.15;;;12.25;;
14892;SDS011;7538;53.626;9.906;2024-01-30T10:34:35;11.18;;;10.07;;
14892;SDS011;7538;53.626;9.906;2024-01-30T10:37:06;18.52;;;11.50;;
14892;SDS011;7538;53.626;9.906;2024-01-30T10:39:40;16.27;;;11.40;;
14892;SDS011;7538;53.626;9.906;2024-01-30T10:42:10;16.38;;;11.15;;
14892;SDS011;7538;53.626;9.906;2024-01-30T10:44:46;18.17;;;11.25;;
14892;SDS011;7538;53.626;9.906;2024-01-30T10:47:26;15.52;;;11.43;;
14892;SDS011;7538;53.626;9.906;2024-01-30T10:49:53;11.35;;;10.05;;
14892;SDS011;7538;53.626;9.906;2024-01-30T10:52:23;12.27;;;10.23;;
14892;SDS011;7538;53.626;9.906;2024-01-30T10:54:51;11.55;;;9.95;;
14892;SDS011;7538;53.626;9.906;2024-01-30T10:57:21;13.98;;;10.60;;
14892;SDS011;7538;53.626;9.906;2024-01-30T10:59:49;11.73;;;10.48;;
14892;SDS011;7538;53.626;9.906;2024-01-30T11:02:19;11.13;;;8.45;;
14892;SDS011;7538;53.626;9.906;2024-01-30T11:04:46;11.38;;;9.40;;
14892;SDS011;7538;53.626;9.906;2024-01-30T11:07:16;10.88;;;9.75;;
14892;SDS011;7538;53.626;9.906;2024-01-30T11:09:49;12.82;;;9.95;;
14892;SDS011;7538;53.626;9.906;2024-01-30T11:12:16;12.80;;;9.82;;
14892;SDS011;7538;53.626;9.906;2024-01-30T11:14:50;11.60;;;9.73;;
14892;SDS011;7538;53.626;9.906;2024-01-30T11:17:28;11.82;;;10.00;;
14892;SDS011;7538;53.626;9.906;2024-01-30T11:20:05;11.98;;;9.98;;
14892;SDS011;7538;53.626;9.906;2024-01-30T11:22:36;11.02;;;9.93;;
14892;SDS011;7538;53.626;9.906;2024-01-30T11:25:03;13.23;;;10.00;;
14892;SDS011;7538;53.626;9.906;2024-01-30T11:27:32;10.35;;;8.68;;
14892;SDS011;7538;53.626;9.906;2024-01-30T11:30:00;11.45;;;9.90;;
14892;SDS011;7538;53.626;9.906;2024-01-30T11:32:28;10.98;;;9.88;;
14892;SDS011;7538;53.626;9.906;2024-01-30T11:34:55;11.48;;;9.13;;
14892;SDS011;7538;53.626;9.906;2024-01-30T11:37:22;9.88;;;8.75;;
14892;SDS011;7538;53.626;9.906;2024-01-30T11:39:52;10.65;;;9.00;;
14892;SDS011;7538;53.626;9.906;2024-01-30T11:42:20;11.10;;;9.10;;
14892;SDS011;7538;53.626;9.906;2024-01-30T11:44:52;11.68;;;9.23;;
14892;SDS011;7538;53.626;9.906;2024-01-30T11:47:19;9.40;;;8.23;;
14892;SDS011;7538;53.626;9.906;2024-01-30T11:49:46;11.93;;;8.88;;
14892;SDS011;7538;53.626;9.906;2024-01-30T11:52:13;9.68;;;8.52;;
14892;SDS011;7538;53.626;9.906;2024-01-30T11:54:40;10.20;;;8.85;;
14892;SDS011;7538;53.626;9.906;2024-01-30T11:57:07;9.23;;;8.10;;
14892;SDS011;7538;53.626;9.906;2024-01-30T11:59:35;9.48;;;8.45;;
14892;SDS011;7538;53.626;9.906;2024-01-30T12:02:03;10.48;;;8.63;;
14892;SDS011;7538;53.626;9.906;2024-01-30T12:04:30;9.23;;;7.97;;
14892;SDS011;7538;53.626;9.906;2024-01-30T12:06:57;9.93;;;8.93;;
14892;SDS011;7538;53.626;9.906;2024-01-30T12:09:24;9.68;;;8.13;;
14892;SDS011;7538;53.626;9.906;2024-01-30T12:11:53;12.15;;;9.40;;
14892;SDS011;7538;53.626;9.906;2024-01-30T12:14:20;10.77;;;9.00;;
14892;SDS011;7538;53.626;9.906;2024-01-30T12:16:50;10.73;;;8.70;;
14892;SDS011;7538;53.626;9.906;2024-01-30T12:19:24;12.38;;;9.00;;
14892;SDS011;7538;53.626;9.906;2024-01-30T12:21:54;10.43;;;8.00;;
14892;SDS011;7538;53.626;9.906;2024-01-30T12:24:23;11.02;;;9.20;;
14892;SDS011;7538;53.626;9.906;2024-01-30T12:26:51;11.20;;;9.02;;
14892;SDS011;7538;53.626;9.906;2024-01-30T12:29:19;11.40;;;8.93;;
14892;SDS011;7538;53.626;9.906;2024-01-30T12:31:47;12.50;;;9.32;;
14892;SDS011;7538;53.626;9.906;2024-01-30T12:34:14;11.25;;;9.23;;
14892;SDS011;7538;53.626;9.906;2024-01-30T12:36:43;13.02;;;9.30;;
14892;SDS011;7538;53.626;9.906;2024-01-30T12:39:10;10.52;;;8.95;;
14892;SDS011;7538;53.626;9.906;2024-01-30T12:41:39;10.57;;;9.10;;
14892;SDS011;7538;53.626;9.906;2024-01-30T12:44:06;11.40;;;8.77;;
14892;SDS011;7538;53.626;9.906;2024-01-30T12:46:34;11.18;;;9.85;;
14892;SDS011;7538;53.626;9.906;2024-01-30T12:49:01;10.38;;;9.05;;
14892;SDS011;7538;53.626;9.906;2024-01-30T12:51:28;11.43;;;8.55;;
14892;SDS011;7538;53.626;9.906;2024-01-30T12:53:56;10.63;;;9.35;;
14892;SDS011;7538;53.626;9.906;2024-01-30T12:56:23;10.98;;;9.88;;
14892;SDS011;7538;53.626;9.906;2024-01-30T12:58:50;10.85;;;9.60;;
14892;SDS011;7538;53.626;9.906;2024-01-30T13:01:17;12.77;;;10.23;;
14892;SDS011;7538;53.626;9.906;2024-01-30T13:03:44;9.95;;;8.93;;
14892;SDS011;7538;53.626;9.906;2024-01-30T13:06:11;12.68;;;9.93;;
14892;SDS011;7538;53.626;9.906;2024-01-30T13:08:37;12.77;;;9.60;;
14892;SDS011;7538;53.626;9.906;2024-01-30T13:11:06;13.25;;;8.73;;
14892;SDS011;7538;53.626;9.906;2024-01-30T13:13:32;13.15;;;9.40;;
14892;SDS011;7538;53.626;9.906;2024-01-30T13:16:00;13.32;;;9.50;;
14892;SDS011;7538;53.626;9.906;2024-01-30T13:18:27;10.07;;;8.95;;
14892;SDS011;7538;53.626;9.906;2024-01-30T13:20:54;11.25;;;8.23;;
14892;SDS011;7538;53.626;9.906;2024-01-30T13:23:21;10.43;;;8.65;;
14892;SDS011;7538;53.626;9.906;2024-01-30T13:25:48;10.77;;;9.00;;
14892;SDS011;7538;53.626;9.906;2024-01-30T13:28:16;9.35;;;8.20;;
14892;SDS011;7538;53.626;9.906;2024-01-30T13:30:43;11.50;;;9.45;;
14892;SDS011;7538;53.626;9.906;2024-01-30T13:33:10;11.45;;;9.43;;
14892;SDS011;7538;53.626;9.906;2024-01-30T13:35:37;11.63;;;9.30;;
14892;SDS011;7538;53.626;9.906;2024-01-30T13:38:04;12.85;;;9.20;;
14892;SDS011;7538;53.626;9.906;2024-01-30T13:40:31;12.30;;;9.13;;
14892;SDS011;7538;53.626;9.906;2024-01-30T13:42:57;11.35;;;8.65;;
14892;SDS011;7538;53.626;9.906;2024-01-30T13:45:26;10.48;;;8.77;;
14892;SDS011;7538;53.626;9.906;2024-01-30T13:47:52;10.82;;;8.77;;
14892;SDS011;7538;53.626;9.906;2024-01-30T13:50:19;11.18;;;10.02;;
14892;SDS011;7538;53.626;9.906;2024-01-30T13:52:46;15.35;;;9.45;;
14892;SDS011;7538;53.626;9.906;2024-01-30T13:55:13;12.68;;;8.57;;
14892;SDS011;7538;53.626;9.906;2024-01-30T13:57:40;11.07;;;9.07;;
14892;SDS011;7538;53.626;9.906;2024-01-30T14:00:07;16.73;;;10.55;;
14892;SDS011;7538;53.626;9.906;2024-01-30T14:02:36;13.63;;;9.75;;
14892;SDS011;7538;53.626;9.906;2024-01-30T14:05:04;10.52;;;9.48;;
14892;SDS011;7538;53.626;9.906;2024-01-30T14:07:31;11.10;;;9.77;;
14892;SDS011;7538;53.626;9.906;2024-01-30T14:09:58;13.45;;;9.98;;
14892;SDS011;7538;53.626;9.906;2024-01-30T14:12:25;11.05;;;9.48;;
14892;SDS011;7538;53.626;9.906;2024-01-30T14:14:51;11.90;;;9.80;;
14892;SDS011;7538;53.626;9.906;2024-01-30T14:17:18;12.00;;;9.13;;
14892;SDS011;7538;53.626;9.906;2024-01-30T14:19:46;11.50;;;9.32;;
14892;SDS011;7538;53.626;9.906;2024-01-30T14:22:13;10.77;;;9.48;;
14892;SDS011;7538;53.626;9.906;2024-01-30T14:24:43;10.57;;;8.55;;
14892;SDS011;7538;53.626;9.906;2024-01-30T14:27:09;10.23;;;8.27;;
14892;SDS011;7538;53.626;9.906;2024-01-30T14:29:36;14.27;;;8.65;;
14892;SDS011;7538;53.626;9.906;2024-01-30T14:32:03;11.77;;;9.68;;
14892;SDS011;7538;53.626;9.906;2024-01-30T14:34:31;10.32;;;8.95;;
14892;SDS011;7538;53.626;9.906;2024-01-30T14:36:59;12.43;;;9.43;;
14892;SDS011;7538;53.626;9.906;2024-01-30T14:39:26;12.82;;;10.10;;
14892;SDS011;7538;53.626;9.906;2024-01-30T14:41:53;11.88;;;9.93;;